createdAt,value
2022-09-23T00:01:02.659Z,5.68
2022-09-23T00:03:30.957Z,5.78
2022-09-23T00:06:10.600Z,5.85
2022-09-23T00:08:38.333Z,5.60
2022-09-23T00:11:11.359Z,5.18
2022-09-23T00:13:39.921Z,5.93
2022-09-23T00:16:09.576Z,5.70
2022-09-23T00:18:36.420Z,5.90
2022-09-23T00:21:10.105Z,5.43
2022-09-23T00:23:39.082Z,5.07
2022-09-23T00:26:07.852Z,5.70
2022-09-23T00:28:35.868Z,4.95
2022-09-23T00:31:08.193Z,5.10
2022-09-23T00:33:34.946Z,5.05
2022-09-23T00:36:03.871Z,4.15
2022-09-23T00:38:30.623Z,4.82
2022-09-23T00:40:58.345Z,4.70
2022-09-23T00:43:46.211Z,4.80
2022-09-23T00:46:29.635Z,5.07
2022-09-23T00:49:04.646Z,4.70
2022-09-23T00:51:41.216Z,4.90
2022-09-23T00:54:08.279Z,4.80
2022-09-23T00:56:36.654Z,4.82
2022-09-23T00:59:04.801Z,4.63
2022-09-23T01:01:31.702Z,4.75
2022-09-23T01:03:58.750Z,4.75
2022-09-23T01:06:25.519Z,4.72
2022-09-23T01:08:52.774Z,4.60
2022-09-23T01:11:37.999Z,4.60
2022-09-23T01:14:32.037Z,4.90
2022-09-23T01:17:04.377Z,5.32
2022-09-23T01:19:57.042Z,5.07
2022-09-23T01:22:59.246Z,4.90
2022-09-23T01:26:07.093Z,4.78
2022-09-23T01:29:17.675Z,4.85
2022-09-23T01:31:55.623Z,4.80
2022-09-23T01:34:30.972Z,4.53
2022-09-23T01:37:12.974Z,4.80
2022-09-23T01:40:10.259Z,4.55
2022-09-23T01:42:43.183Z,4.57
2022-09-23T01:45:25.263Z,4.80
2022-09-23T01:48:20.367Z,5.18
2022-09-23T01:51:23.822Z,4.78
2022-09-23T01:53:59.744Z,4.78
2022-09-23T01:56:37.454Z,4.78
2022-09-23T01:59:35.664Z,4.82
2022-09-23T02:02:20.308Z,4.55
2022-09-23T02:05:02.364Z,5.10
2022-09-23T02:08:04.310Z,5.18
2022-09-23T02:10:43.051Z,4.90
2022-09-23T02:13:20.944Z,5.07
2022-09-23T02:15:52.969Z,5.30
2022-09-23T02:18:26.170Z,5.05
2022-09-23T02:20:57.240Z,5.05
2022-09-23T02:23:29.801Z,4.90
2022-09-23T02:28:48.822Z,5.10
2022-09-23T02:31:25.630Z,4.97
2022-09-23T02:34:21.864Z,5.47
2022-09-23T02:37:23.797Z,5.10
2022-09-23T02:40:11.290Z,5.05
2022-09-23T02:43:00.984Z,5.72
2022-09-23T02:45:27.793Z,5.78
2022-09-23T02:48:02.341Z,6.00
2022-09-23T02:50:30.870Z,6.47
2022-09-23T02:52:59.336Z,6.32
2022-09-23T02:55:31.217Z,6.25
2022-09-23T02:58:01.373Z,6.10
2022-09-23T03:01:15.360Z,6.25
2022-09-23T03:03:59.840Z,6.05
2022-09-23T03:06:46.165Z,5.82
2022-09-23T03:09:26.417Z,6.18
2022-09-23T03:12:05.832Z,5.75
2022-09-23T03:14:44.501Z,5.82
2022-09-23T03:17:41.912Z,6.38
2022-09-23T03:20:34.070Z,5.93
2022-09-23T03:23:14.768Z,6.90
2022-09-23T03:25:44.603Z,6.47
2022-09-23T03:28:12.180Z,6.57
2022-09-23T03:30:40.338Z,7.03
2022-09-23T03:33:09.557Z,6.57
2022-09-23T03:36:01.234Z,6.32
2022-09-23T03:38:33.901Z,6.28
2022-09-23T03:41:04.055Z,6.47
2022-09-23T03:43:36.617Z,6.82
2022-09-23T03:46:07.018Z,6.40
2022-09-23T03:48:33.926Z,6.97
2022-09-23T03:51:27.729Z,6.43
2022-09-23T03:53:54.389Z,6.53
2022-09-23T03:56:22.148Z,6.15
2022-09-23T03:58:48.819Z,6.63
2022-09-23T04:01:15.726Z,6.78
2022-09-23T04:03:42.418Z,7.20
2022-09-23T04:06:10.337Z,6.85
2022-09-23T04:08:36.985Z,6.95
2022-09-23T04:11:04.661Z,7.38
2022-09-23T04:13:32.200Z,8.15
2022-09-23T04:15:59.114Z,9.27
2022-09-23T04:18:25.959Z,8.50
2022-09-23T04:20:59.851Z,8.65
2022-09-23T04:23:27.625Z,8.65
2022-09-23T04:25:54.297Z,8.63
2022-09-23T04:28:22.299Z,8.55
2022-09-23T04:30:51.799Z,8.70
2022-09-23T04:33:21.329Z,8.50
2022-09-23T04:35:50.987Z,8.57
2022-09-23T04:38:21.892Z,8.15
2022-09-23T04:40:49.148Z,8.20
2022-09-23T04:43:16.775Z,8.30
2022-09-23T04:45:44.270Z,8.80
2022-09-23T04:48:12.748Z,10.07
2022-09-23T04:50:40.006Z,10.23
2022-09-23T04:53:06.721Z,10.65
2022-09-23T04:55:35.991Z,12.75
2022-09-23T04:58:02.641Z,11.82
2022-09-23T05:00:29.420Z,13.48
2022-09-23T05:02:58.575Z,13.05
2022-09-23T05:05:25.234Z,12.20
2022-09-23T05:07:54.892Z,11.52
2022-09-23T05:10:22.372Z,10.35
2022-09-23T05:12:51.454Z,9.75
2022-09-23T05:15:21.167Z,9.38
2022-09-23T05:17:49.126Z,9.38
2022-09-23T05:20:15.979Z,9.48
2022-09-23T05:22:43.624Z,9.98
2022-09-23T05:25:10.279Z,10.55
2022-09-23T05:27:36.925Z,10.50
2022-09-23T05:30:07.210Z,10.32
2022-09-23T05:32:33.885Z,10.55
2022-09-23T05:35:00.511Z,10.18
2022-09-23T05:37:27.246Z,10.27
2022-09-23T05:39:53.860Z,10.48
2022-09-23T05:42:21.033Z,10.48
2022-09-23T05:44:47.787Z,10.45
2022-09-23T05:47:14.688Z,10.85
2022-09-23T05:49:58.577Z,11.30
2022-09-23T05:52:25.898Z,10.15
2022-09-23T05:54:52.574Z,9.90
2022-09-23T05:57:19.734Z,11.70
2022-09-23T05:59:47.665Z,10.30
2022-09-23T06:02:15.065Z,11.10
2022-09-23T06:04:42.598Z,10.73
2022-09-23T06:07:09.595Z,10.02
2022-09-23T06:09:36.897Z,10.07
2022-09-23T06:12:04.424Z,10.57
2022-09-23T06:14:31.103Z,10.13
2022-09-23T06:16:57.794Z,10.77
2022-09-23T06:19:24.472Z,10.35
2022-09-23T06:21:51.102Z,10.30
2022-09-23T06:24:21.253Z,10.85
2022-09-23T06:26:49.670Z,10.93
2022-09-23T06:29:18.059Z,10.52
2022-09-23T06:31:44.791Z,10.93
2022-09-23T06:34:13.961Z,10.48
2022-09-23T06:36:46.429Z,11.30
2022-09-23T06:39:16.432Z,11.30
2022-09-23T06:41:45.091Z,10.45
2022-09-23T06:44:13.584Z,10.63
2022-09-23T06:46:40.416Z,9.77
2022-09-23T06:49:07.160Z,11.00
2022-09-23T06:51:34.338Z,10.93
2022-09-23T06:54:00.988Z,10.43
2022-09-23T06:56:27.794Z,10.13
2022-09-23T06:58:54.688Z,10.18
2022-09-23T07:01:22.238Z,10.20
2022-09-23T07:03:48.963Z,10.68
2022-09-23T07:06:16.115Z,11.07
2022-09-23T07:08:44.841Z,9.98
2022-09-23T07:11:13.003Z,11.10
2022-09-23T07:13:41.184Z,10.07
2022-09-23T07:16:09.051Z,10.45
2022-09-23T07:18:37.353Z,9.52
2022-09-23T07:21:15.347Z,9.60
2022-09-23T07:23:43.467Z,10.00
2022-09-23T07:26:10.676Z,10.43
2022-09-23T07:28:38.245Z,9.98
2022-09-23T07:31:08.472Z,9.27
2022-09-23T07:33:39.877Z,10.32
2022-09-23T07:36:12.314Z,10.13
2022-09-23T07:38:44.248Z,9.63
2022-09-23T07:41:14.414Z,9.40
2022-09-23T07:43:41.235Z,9.50
2022-09-23T07:46:11.518Z,8.90
2022-09-23T07:48:39.059Z,10.27
2022-09-23T07:51:08.706Z,10.02
2022-09-23T07:53:35.957Z,10.75
2022-09-23T07:56:06.374Z,9.85
2022-09-23T07:58:34.918Z,9.05
2022-09-23T08:01:11.155Z,8.98
2022-09-23T08:03:39.164Z,8.98
2022-09-23T08:06:11.853Z,10.45
2022-09-23T08:08:43.321Z,9.82
2022-09-23T08:11:13.139Z,8.80
2022-09-23T08:13:40.400Z,10.20
2022-09-23T08:16:07.389Z,9.50
2022-09-23T08:18:34.414Z,8.93
2022-09-23T08:21:01.438Z,8.98
2022-09-23T08:23:33.203Z,9.55
2022-09-23T08:26:01.891Z,9.40
2022-09-23T08:28:28.747Z,9.13
2022-09-23T08:30:56.128Z,9.65
2022-09-23T08:33:23.983Z,9.25
2022-09-23T08:35:52.109Z,8.52
2022-09-23T08:38:19.502Z,9.30
2022-09-23T08:40:49.327Z,9.10
2022-09-23T08:43:28.264Z,9.38
2022-09-23T08:45:57.295Z,7.90
2022-09-23T08:48:45.441Z,8.70
2022-09-23T08:51:16.041Z,8.27
2022-09-23T08:53:45.470Z,8.20
2022-09-23T08:56:22.174Z,7.75
2022-09-23T08:58:51.534Z,8.40
2022-09-23T09:01:36.895Z,8.23
2022-09-23T09:04:21.664Z,7.97
2022-09-23T09:10:18.914Z,7.75
2022-09-23T09:12:50.540Z,7.70
2022-09-23T09:15:25.194Z,7.32
2022-09-23T09:18:10.091Z,7.35
2022-09-23T09:21:08.383Z,7.40
2022-09-23T09:23:57.834Z,6.93
2022-09-23T09:26:27.658Z,7.72
2022-09-23T09:29:34.119Z,7.38
2022-09-23T09:32:16.555Z,7.07
2022-09-23T09:34:54.546Z,8.30
2022-09-23T09:37:35.720Z,6.75
2022-09-23T09:40:02.873Z,7.00
2022-09-23T09:42:40.938Z,7.22
2022-09-23T09:45:15.063Z,7.10
2022-09-23T09:48:10.892Z,7.60
2022-09-23T09:50:49.409Z,7.10
2022-09-23T09:53:30.336Z,7.20
2022-09-23T09:56:08.855Z,7.55
2022-09-23T09:58:47.777Z,7.32
2022-09-23T10:01:32.834Z,7.15
2022-09-23T10:04:21.433Z,7.18
2022-09-23T10:07:09.360Z,7.60
2022-09-23T10:09:38.276Z,7.47
2022-09-23T10:12:20.226Z,7.45
2022-09-23T10:14:51.224Z,7.10
2022-09-23T10:17:31.471Z,6.90
2022-09-23T10:20:06.762Z,6.40
2022-09-23T10:22:37.333Z,6.50
2022-09-23T10:25:20.185Z,5.93
2022-09-23T10:27:47.284Z,7.03
2022-09-23T10:30:25.387Z,6.70
2022-09-23T10:32:54.812Z,6.30
2022-09-23T10:35:24.410Z,5.90
2022-09-23T10:37:56.163Z,6.63
2022-09-23T10:40:59.097Z,6.15
2022-09-23T10:44:03.599Z,5.55
2022-09-23T10:46:45.798Z,5.22
2022-09-23T10:49:37.691Z,5.25
2022-09-23T10:52:10.014Z,5.80
2022-09-23T10:54:56.445Z,5.70
2022-09-23T10:57:44.799Z,5.82
2022-09-23T11:00:25.683Z,6.10
2022-09-23T11:03:20.242Z,5.88
2022-09-23T11:05:55.684Z,5.70
2022-09-23T11:08:37.934Z,5.80
2022-09-23T11:11:23.028Z,5.40
2022-09-23T11:14:16.828Z,5.40
2022-09-23T11:16:54.509Z,5.82
2022-09-23T11:19:45.707Z,5.63
2022-09-23T11:22:23.056Z,6.10
2022-09-23T11:25:14.011Z,5.43
2022-09-23T11:28:13.033Z,5.03
2022-09-23T11:31:10.137Z,4.75
2022-09-23T11:34:01.614Z,4.80
2022-09-23T11:36:36.391Z,4.60
2022-09-23T11:39:14.424Z,4.60
2022-09-23T11:41:43.134Z,4.68
2022-09-23T11:44:44.585Z,4.85
2022-09-23T11:47:21.655Z,4.43
2022-09-23T11:50:04.414Z,4.28
2022-09-23T11:52:44.995Z,4.28
2022-09-23T11:55:21.841Z,4.07
2022-09-23T11:57:52.999Z,4.50
2022-09-23T12:00:34.118Z,4.30
2022-09-23T12:03:18.247Z,3.35
2022-09-23T12:05:48.145Z,4.00
2022-09-23T12:08:36.647Z,4.00
2022-09-23T12:11:30.303Z,3.83
2022-09-23T12:14:15.539Z,3.53
2022-09-23T12:16:50.662Z,3.55
2022-09-23T12:19:47.487Z,2.95
2022-09-23T12:22:37.000Z,3.20
2022-09-23T12:25:34.396Z,3.38
2022-09-23T12:28:06.223Z,3.42
2022-09-23T12:30:35.711Z,3.20
2022-09-23T12:33:29.851Z,3.58
2022-09-23T12:36:04.872Z,3.38
2022-09-23T12:38:38.648Z,3.30
2022-09-23T12:41:23.886Z,3.28
2022-09-23T12:44:11.769Z,3.40
2022-09-23T12:46:39.760Z,3.38
2022-09-23T12:49:35.550Z,3.38
2022-09-23T12:52:10.956Z,3.53
2022-09-23T12:54:39.104Z,3.70
2022-09-23T12:57:13.593Z,3.65
2022-09-23T12:59:58.337Z,3.72
2022-09-23T13:02:36.010Z,3.85
2022-09-23T13:05:22.853Z,3.60
2022-09-23T13:07:50.456Z,3.75
2022-09-23T13:10:30.596Z,3.65
2022-09-23T13:12:59.072Z,4.35
2022-09-23T13:15:36.438Z,3.50
2022-09-23T13:18:21.460Z,3.40
2022-09-23T13:20:52.999Z,3.53
2022-09-23T13:23:26.647Z,3.80
2022-09-23T13:25:57.116Z,3.88
2022-09-23T13:28:34.404Z,4.25
2022-09-23T13:31:14.738Z,3.58
2022-09-23T13:33:46.352Z,3.25
2022-09-23T13:36:16.823Z,3.50
2022-09-23T13:38:45.963Z,3.33
2022-09-23T13:41:28.445Z,3.47
2022-09-23T13:44:00.210Z,3.58
2022-09-23T13:46:34.948Z,4.25
2022-09-23T13:49:02.676Z,3.17
2022-09-23T13:51:34.038Z,2.70
2022-09-23T13:54:04.013Z,3.33
2022-09-23T13:56:33.463Z,3.50
2022-09-23T13:59:38.628Z,3.35
2022-09-23T14:02:10.775Z,3.20
2022-09-23T14:07:07.138Z,3.45
2022-09-23T14:09:35.593Z,3.83
2022-09-23T14:12:04.130Z,4.25
2022-09-23T14:14:37.083Z,4.35
2022-09-23T14:17:06.365Z,4.07
2022-09-23T14:19:35.582Z,3.58
2022-09-23T14:22:02.426Z,4.05
2022-09-23T14:24:34.169Z,3.97
2022-09-23T14:27:04.347Z,4.13
2022-09-23T14:29:36.713Z,3.70
2022-09-23T14:32:17.245Z,4.47
2022-09-23T14:34:49.444Z,5.13
2022-09-23T14:40:01.672Z,3.80
2022-09-23T14:42:31.562Z,3.78
2022-09-23T14:44:58.231Z,4.78
2022-09-23T14:47:25.271Z,5.82
2022-09-23T14:50:14.985Z,6.32
2022-09-23T14:52:49.444Z,5.97
2022-09-23T14:55:17.475Z,5.95
2022-09-23T14:57:45.220Z,5.95
2022-09-23T15:00:18.875Z,6.13
2022-09-23T15:02:57.617Z,6.25
2022-09-23T15:05:43.174Z,7.20
2022-09-23T15:08:19.848Z,6.85
2022-09-23T15:10:47.024Z,7.20
2022-09-23T15:13:18.651Z,6.65
2022-09-23T15:15:46.055Z,6.15
2022-09-23T15:18:23.947Z,6.25
2022-09-23T15:20:54.431Z,5.72
2022-09-23T15:23:40.840Z,5.65
2022-09-23T15:26:17.870Z,5.75
2022-09-23T15:28:46.136Z,5.97
2022-09-23T15:31:16.032Z,5.75
2022-09-23T15:33:47.592Z,5.53
2022-09-23T15:36:23.511Z,5.30
2022-09-23T15:38:57.166Z,5.85
2022-09-23T15:41:24.336Z,5.60
2022-09-23T15:43:51.435Z,5.28
2022-09-23T15:46:25.024Z,5.97
2022-09-23T15:49:23.060Z,6.22
2022-09-23T15:51:52.000Z,5.70
2022-09-23T15:54:19.583Z,6.30
2022-09-23T15:56:47.958Z,5.65
2022-09-23T15:59:14.603Z,5.60
2022-09-23T16:01:43.160Z,6.50
2022-09-23T16:04:11.242Z,8.55
2022-09-23T16:06:37.975Z,9.35
2022-09-23T16:09:04.700Z,19.67
2022-09-23T16:11:31.914Z,14.45
2022-09-23T16:14:00.386Z,9.27
2022-09-23T16:16:28.070Z,7.95
2022-09-23T16:18:55.202Z,8.07
2022-09-23T16:21:25.479Z,7.95
2022-09-23T16:23:53.317Z,7.70
2022-09-23T16:26:21.721Z,8.07
2022-09-23T16:28:59.022Z,7.82
2022-09-23T16:31:31.205Z,7.80
2022-09-23T16:34:02.011Z,9.13
2022-09-23T16:36:38.185Z,9.30
2022-09-23T16:39:07.328Z,9.23
2022-09-23T16:41:34.107Z,10.90
2022-09-23T16:44:04.267Z,12.88
2022-09-23T16:46:31.879Z,11.98
2022-09-23T16:49:00.266Z,10.52
2022-09-23T16:51:38.391Z,10.00
2022-09-23T16:54:10.317Z,10.82
2022-09-23T16:56:40.265Z,10.60
2022-09-23T16:59:07.061Z,10.77
2022-09-23T17:01:52.293Z,10.98
2022-09-23T17:04:19.508Z,11.57
2022-09-23T17:06:50.853Z,11.60
2022-09-23T17:09:19.790Z,13.20
2022-09-23T17:11:48.927Z,13.15
2022-09-23T17:14:16.294Z,14.43
2022-09-23T17:16:43.250Z,14.13
2022-09-23T17:19:11.735Z,16.73
2022-09-23T17:21:38.868Z,14.52
2022-09-23T17:24:06.180Z,34.60
2022-09-23T17:26:34.126Z,17.63
2022-09-23T17:29:02.923Z,14.90
2022-09-23T17:31:30.597Z,15.13
2022-09-23T17:33:57.511Z,18.80
2022-09-23T17:36:24.222Z,18.85
2022-09-23T17:38:54.090Z,14.63
2022-09-23T17:41:21.304Z,14.95
2022-09-23T17:43:53.388Z,13.93
2022-09-23T17:46:20.092Z,15.73
2022-09-23T17:48:48.709Z,14.45
2022-09-23T17:51:18.778Z,17.48
2022-09-23T17:53:47.690Z,16.33
2022-09-23T17:56:25.004Z,20.73
2022-09-23T17:58:53.235Z,21.95
2022-09-23T18:01:24.543Z,24.23
2022-09-23T18:03:59.146Z,21.83
2022-09-23T18:06:28.255Z,23.75
2022-09-23T18:08:56.055Z,20.27
2022-09-23T18:11:24.685Z,18.58
2022-09-23T18:13:53.830Z,20.58
2022-09-23T18:16:23.820Z,17.13
2022-09-23T18:18:52.358Z,18.92
2022-09-23T18:21:20.415Z,18.13
2022-09-23T18:23:47.547Z,17.38
2022-09-23T18:26:23.232Z,16.77
2022-09-23T18:28:52.652Z,17.75
2022-09-23T18:31:20.437Z,16.95
2022-09-23T18:33:51.496Z,16.92
2022-09-23T18:36:19.927Z,14.85
2022-09-23T18:38:47.423Z,16.00
2022-09-23T18:41:14.601Z,16.98
2022-09-23T18:43:46.307Z,17.85
2022-09-23T18:46:20.934Z,16.75
2022-09-23T18:49:07.092Z,17.73
2022-09-23T18:51:36.511Z,16.08
2022-09-23T18:54:05.738Z,16.10
2022-09-23T18:56:39.523Z,16.25
2022-09-23T18:59:08.477Z,16.88
2022-09-23T19:01:35.580Z,16.60
2022-09-23T19:04:03.549Z,16.67
2022-09-23T19:06:32.520Z,17.20
2022-09-23T19:08:59.434Z,18.02
2022-09-23T19:11:26.840Z,58.00
2022-09-23T19:14:00.170Z,34.25
2022-09-23T19:16:27.287Z,20.52
2022-09-23T19:18:54.299Z,17.77
2022-09-23T19:21:22.903Z,17.90
2022-09-23T19:23:52.875Z,18.58
2022-09-23T19:26:23.689Z,17.88
2022-09-23T19:28:56.684Z,18.75
2022-09-23T19:31:29.681Z,18.67
2022-09-23T19:34:25.884Z,18.13
2022-09-23T19:36:55.811Z,17.52
2022-09-23T19:39:24.842Z,17.75
2022-09-23T19:41:52.504Z,18.95
2022-09-23T19:44:19.959Z,17.48
2022-09-23T19:46:53.526Z,19.50
2022-09-23T19:49:24.392Z,16.35
2022-09-23T19:51:51.548Z,18.08
2022-09-23T19:54:20.366Z,18.70
2022-09-23T19:56:48.563Z,18.13
2022-09-23T19:59:18.820Z,18.55
2022-09-23T20:01:47.351Z,19.42
2022-09-23T20:04:15.503Z,18.95
2022-09-23T20:06:42.367Z,20.08
2022-09-23T20:09:09.136Z,21.08
2022-09-23T20:11:35.858Z,20.27
2022-09-23T20:14:04.170Z,20.42
2022-09-23T20:16:33.809Z,20.95
2022-09-23T20:19:01.518Z,20.77
2022-09-23T20:21:29.178Z,19.52
2022-09-23T20:23:56.747Z,21.02
2022-09-23T20:26:43.596Z,20.45
2022-09-23T20:29:10.974Z,19.10
2022-09-23T20:31:40.238Z,18.55
2022-09-23T20:34:10.100Z,21.30
2022-09-23T20:36:37.187Z,22.58
2022-09-23T20:39:06.954Z,20.08
2022-09-23T20:41:37.738Z,20.55
2022-09-23T20:44:07.693Z,20.00
2022-09-23T20:46:35.770Z,20.30
2022-09-23T20:49:04.877Z,19.83
2022-09-23T20:51:34.816Z,18.98
2022-09-23T20:54:02.245Z,19.42
2022-09-23T20:56:29.404Z,22.40
2022-09-23T20:59:04.586Z,20.65
2022-09-23T21:01:36.390Z,18.77
2022-09-23T21:04:05.469Z,20.45
2022-09-23T21:06:34.876Z,19.75
2022-09-23T21:09:01.710Z,20.25
2022-09-23T21:11:29.090Z,20.35
2022-09-23T21:13:56.450Z,18.20
2022-09-23T21:16:23.927Z,19.63
2022-09-23T21:18:52.202Z,19.38
2022-09-23T21:21:19.875Z,21.52
2022-09-23T21:23:47.214Z,20.63
2022-09-23T21:26:17.725Z,21.13
2022-09-23T21:28:46.431Z,21.33
2022-09-23T21:31:23.097Z,20.63
2022-09-23T21:34:02.374Z,20.95
2022-09-23T21:36:30.847Z,23.48
2022-09-23T21:38:58.059Z,22.70
2022-09-23T21:41:25.327Z,22.23
2022-09-23T21:43:52.092Z,21.02
2022-09-23T21:46:20.498Z,22.48
2022-09-23T21:48:50.082Z,22.65
2022-09-23T21:51:23.052Z,22.70
2022-09-23T21:53:49.870Z,22.95
2022-09-23T21:56:23.428Z,21.25
2022-09-23T21:58:52.338Z,23.92
2022-09-23T22:01:22.036Z,21.40
2022-09-23T22:04:05.116Z,24.33
2022-09-23T22:06:32.225Z,23.42
2022-09-23T22:09:01.950Z,22.48
2022-09-23T22:11:49.485Z,22.20
2022-09-23T22:14:18.173Z,22.92
2022-09-23T22:16:48.147Z,22.50
2022-09-23T22:19:15.901Z,22.45
2022-09-23T22:21:45.006Z,24.23
2022-09-23T22:24:12.921Z,23.42
2022-09-23T22:26:42.446Z,24.08
2022-09-23T22:29:30.802Z,23.20
2022-09-23T22:32:16.655Z,24.48
2022-09-23T22:34:51.393Z,25.48
2022-09-23T22:37:26.074Z,25.58
2022-09-23T22:39:53.397Z,26.08
2022-09-23T22:42:23.189Z,26.48
2022-09-23T22:44:50.710Z,25.40
2022-09-23T22:47:18.524Z,26.25
2022-09-23T22:49:49.530Z,26.05
2022-09-23T22:52:20.852Z,28.13
2022-09-23T22:54:47.535Z,26.23
2022-09-23T22:57:15.171Z,27.70
2022-09-23T22:59:43.752Z,28.05
2022-09-23T23:02:10.422Z,29.77
2022-09-23T23:04:37.139Z,30.05
2022-09-23T23:07:04.208Z,30.70
2022-09-23T23:09:31.103Z,27.15
2022-09-23T23:11:57.740Z,28.50
2022-09-23T23:14:26.287Z,29.98
2022-09-23T23:16:53.467Z,30.08
2022-09-23T23:19:20.180Z,29.70
2022-09-23T23:21:46.906Z,29.08
2022-09-23T23:24:17.824Z,29.75
2022-09-23T23:26:44.746Z,30.88
2022-09-23T23:29:13.768Z,30.35
2022-09-23T23:31:41.024Z,29.85
2022-09-23T23:34:11.752Z,32.22
2022-09-23T23:36:38.442Z,29.92
2022-09-23T23:39:05.389Z,29.30
2022-09-23T23:41:32.116Z,28.02
2022-09-23T23:44:00.394Z,28.48
2022-09-23T23:46:29.095Z,30.13
2022-09-23T23:48:57.104Z,28.02
2022-09-23T23:51:28.003Z,27.77
2022-09-23T23:53:55.439Z,25.45
2022-09-23T23:56:24.492Z,26.65
2022-09-23T23:58:55.712Z,26.27
